createdAt,value
2018-06-14T00:01:42.814Z,12.20
2018-06-14T00:04:11.046Z,11.37
2018-06-14T00:06:39.218Z,13.13
2018-06-14T00:09:09.194Z,12.80
2018-06-14T00:11:37.156Z,12.67
2018-06-14T00:14:05.382Z,13.27
2018-06-14T00:16:33.593Z,13.00
2018-06-14T00:19:01.774Z,14.10
2018-06-14T00:21:29.958Z,13.57
2018-06-14T00:23:58.177Z,13.67
2018-06-14T00:26:26.354Z,13.70
2018-06-14T00:28:54.526Z,12.33
2018-06-14T00:31:22.710Z,11.80
2018-06-14T00:33:50.891Z,12.27
2018-06-14T00:36:19.035Z,12.73
2018-06-14T00:38:47.239Z,12.70
2018-06-14T00:41:15.434Z,13.20
2018-06-14T00:43:43.629Z,13.23
2018-06-14T00:46:11.561Z,12.53
2018-06-14T00:48:39.750Z,12.00
2018-06-14T00:51:07.923Z,12.90
2018-06-14T00:53:36.117Z,12.60
2018-06-14T00:56:04.297Z,12.93
2018-06-14T00:58:32.252Z,12.80
2018-06-14T01:01:00.420Z,13.80
2018-06-14T01:03:28.634Z,12.37
2018-06-14T01:05:56.809Z,13.00
2018-06-14T01:08:24.987Z,12.73
2018-06-14T01:10:53.159Z,13.00
2018-06-14T01:13:21.339Z,13.10
2018-06-14T01:15:49.510Z,10.90
2018-06-14T01:18:17.733Z,10.70
2018-06-14T01:20:45.925Z,11.13
2018-06-14T01:23:14.130Z,11.40
2018-06-14T01:25:42.332Z,12.17
2018-06-14T01:28:10.530Z,10.67
2018-06-14T01:30:38.706Z,12.37
2018-06-14T01:33:06.904Z,13.93
2018-06-14T01:35:35.073Z,13.57
2018-06-14T01:38:14.745Z,12.83
2018-06-14T01:40:42.927Z,12.43
2018-06-14T01:43:11.123Z,12.27
2018-06-14T01:45:39.319Z,11.77
2018-06-14T01:48:07.491Z,11.50
2018-06-14T01:50:35.705Z,12.20
2018-06-14T01:53:03.647Z,11.83
2018-06-14T01:55:33.194Z,13.40
2018-06-14T01:58:02.085Z,13.00
2018-06-14T02:00:30.257Z,11.93
2018-06-14T02:02:58.424Z,11.60
2018-06-14T02:05:26.870Z,12.27
2018-06-14T02:07:55.081Z,12.07
2018-06-14T02:10:23.262Z,13.87
2018-06-14T02:12:51.437Z,13.10
2018-06-14T02:15:19.659Z,13.03
2018-06-14T02:17:47.831Z,12.17
2018-06-14T02:20:16.109Z,11.73
2018-06-14T02:22:44.283Z,12.17
2018-06-14T02:25:12.500Z,13.00
2018-06-14T02:27:40.754Z,12.20
2018-06-14T02:30:08.926Z,12.07
2018-06-14T02:32:37.120Z,12.17
2018-06-14T02:35:05.068Z,11.27
2018-06-14T02:37:37.462Z,11.97
2018-06-14T02:40:05.697Z,11.50
2018-06-14T02:42:33.895Z,12.20
2018-06-14T02:45:02.084Z,11.20
2018-06-14T02:47:30.066Z,12.33
2018-06-14T02:49:58.056Z,13.27
2018-06-14T02:52:26.322Z,13.30
2018-06-14T02:54:54.545Z,12.60
2018-06-14T02:57:22.736Z,13.40
2018-06-14T02:59:50.931Z,13.73
2018-06-14T03:02:18.903Z,12.40
2018-06-14T03:04:47.086Z,12.70
2018-06-14T03:07:20.654Z,12.07
2018-06-14T03:09:48.858Z,11.63
2018-06-14T03:12:16.801Z,11.80
2018-06-14T03:14:45.015Z,12.03
2018-06-14T03:17:13.253Z,11.87
2018-06-14T03:19:41.442Z,12.57
2018-06-14T03:22:09.412Z,12.90
2018-06-14T03:24:37.597Z,11.97
2018-06-14T03:27:05.828Z,12.40
2018-06-14T03:29:34.041Z,12.03
2018-06-14T03:32:02.737Z,12.53
2018-06-14T03:34:31.911Z,12.93
2018-06-14T03:36:59.865Z,13.33
2018-06-14T03:39:28.028Z,13.03
2018-06-14T03:41:56.260Z,12.63
2018-06-14T03:44:24.725Z,13.07
2018-06-14T03:46:52.913Z,12.90
2018-06-14T03:49:21.117Z,12.00
2018-06-14T03:51:49.295Z,12.80
2018-06-14T03:54:17.474Z,13.47
2018-06-14T03:56:45.674Z,12.60
2018-06-14T03:59:13.862Z,12.47
2018-06-14T04:01:41.826Z,13.13
2018-06-14T04:04:09.788Z,12.90
2018-06-14T04:06:37.990Z,13.13
2018-06-14T04:09:07.750Z,13.07
2018-06-14T04:11:35.987Z,13.97
2018-06-14T04:14:04.177Z,13.03
2018-06-14T04:16:32.341Z,14.47
2018-06-14T04:19:00.491Z,12.43
2018-06-14T04:21:28.655Z,12.37
2018-06-14T04:23:56.792Z,14.00
2018-06-14T04:26:25.085Z,13.17
2018-06-14T04:28:53.914Z,13.20
2018-06-14T04:31:22.118Z,15.93
2018-06-14T04:33:50.335Z,14.57
2018-06-14T04:36:18.715Z,16.73
2018-06-14T04:38:46.865Z,14.73
2018-06-14T04:41:15.162Z,14.43
2018-06-14T04:43:43.446Z,15.37
2018-06-14T04:46:11.474Z,15.67
2018-06-14T04:48:39.622Z,13.83
2018-06-14T04:51:07.771Z,13.27
2018-06-14T04:53:38.924Z,15.67
2018-06-14T04:56:08.912Z,14.40
2018-06-14T04:58:37.102Z,14.73
2018-06-14T05:01:05.600Z,13.10
2018-06-14T05:03:33.778Z,12.77
2018-06-14T05:06:02.102Z,12.80
2018-06-14T05:08:30.272Z,12.03
2018-06-14T05:10:58.450Z,11.37
2018-06-14T05:13:26.713Z,12.67
2018-06-14T05:15:55.007Z,13.47
2018-06-14T05:18:24.306Z,14.23
2018-06-14T05:20:53.541Z,11.43
2018-06-14T05:23:21.483Z,13.20
2018-06-14T05:25:49.694Z,12.17
2018-06-14T05:28:17.919Z,12.97
2018-06-14T05:30:46.109Z,12.80
2018-06-14T05:33:14.729Z,12.40
2018-06-14T05:35:42.892Z,13.60
2018-06-14T05:38:11.011Z,12.10
2018-06-14T05:40:39.301Z,13.13
2018-06-14T05:43:07.844Z,13.63
2018-06-14T05:45:35.998Z,13.47
2018-06-14T05:48:03.938Z,13.70
2018-06-14T05:50:32.113Z,13.27
2018-06-14T05:53:00.289Z,13.53
2018-06-14T05:55:28.474Z,12.80
2018-06-14T05:57:56.650Z,14.13
2018-06-14T06:00:24.845Z,14.20
2018-06-14T06:02:52.835Z,13.73
2018-06-14T06:05:21.787Z,14.13
2018-06-14T06:07:50.278Z,14.27
2018-06-14T06:10:18.419Z,15.07
2018-06-14T06:12:46.610Z,12.80
2018-06-14T06:15:14.778Z,14.43
2018-06-14T06:17:42.958Z,13.87
2018-06-14T06:20:13.705Z,13.77
2018-06-14T06:22:41.877Z,13.37
2018-06-14T06:25:09.822Z,14.17
2018-06-14T06:27:38.021Z,14.67
2018-06-14T06:30:06.538Z,13.00
2018-06-14T06:32:34.812Z,12.83
2018-06-14T06:35:03.481Z,13.77
2018-06-14T06:37:31.710Z,14.07
2018-06-14T06:39:59.910Z,13.53
2018-06-14T06:42:28.391Z,14.23
2018-06-14T06:44:56.585Z,14.47
2018-06-14T06:47:24.736Z,14.20
2018-06-14T06:49:53.338Z,12.97
2018-06-14T06:52:21.293Z,13.47
2018-06-14T06:54:50.240Z,13.50
2018-06-14T06:57:18.472Z,14.13
2018-06-14T06:59:46.691Z,13.93
2018-06-14T07:02:14.884Z,13.87
2018-06-14T07:04:43.077Z,13.87
2018-06-14T07:07:11.264Z,13.90
2018-06-14T07:09:39.469Z,13.40
2018-06-14T07:12:07.629Z,14.87
2018-06-14T07:14:35.828Z,14.83
2018-06-14T07:17:03.990Z,13.47
2018-06-14T07:19:32.186Z,14.17
2018-06-14T07:22:00.396Z,17.70
2018-06-14T07:24:28.553Z,15.13
2018-06-14T07:26:56.718Z,15.90
2018-06-14T07:29:24.916Z,15.57
2018-06-14T07:31:53.091Z,13.93
2018-06-14T07:34:21.264Z,13.60
2018-06-14T07:36:49.439Z,14.47
2018-06-14T07:39:17.636Z,15.17
2018-06-14T07:41:45.549Z,14.23
2018-06-14T07:44:13.734Z,12.00
2018-06-14T07:46:41.886Z,13.33
2018-06-14T07:49:10.103Z,12.60
2018-06-14T07:51:38.265Z,12.13
2018-06-14T07:54:06.489Z,11.53
2018-06-14T07:56:34.674Z,10.20
2018-06-14T07:59:02.860Z,10.33
2018-06-14T08:01:31.046Z,5.90
2018-06-14T08:03:59.262Z,5.73
2018-06-14T08:06:27.515Z,6.13
2018-06-14T08:08:55.642Z,6.33
2018-06-14T08:11:23.836Z,6.03
2018-06-14T08:13:52.106Z,5.80
2018-06-14T08:16:20.333Z,6.63
2018-06-14T08:18:48.642Z,8.17
2018-06-14T08:21:16.830Z,5.67
2018-06-14T08:23:45.016Z,6.70
2018-06-14T08:26:13.206Z,6.80
2018-06-14T08:28:41.378Z,5.73
2018-06-14T08:31:09.562Z,6.17
2018-06-14T08:33:37.738Z,11.20
2018-06-14T08:36:05.909Z,7.30
2018-06-14T08:38:34.078Z,5.27
2018-06-14T08:41:02.282Z,6.07
2018-06-14T08:43:30.492Z,6.33
2018-06-14T08:45:58.674Z,6.67
2018-06-14T08:48:26.825Z,5.77
2018-06-14T08:50:55.037Z,5.20
2018-06-14T08:53:23.232Z,5.77
2018-06-14T08:55:51.389Z,5.97
2018-06-14T08:58:19.534Z,6.10
2018-06-14T09:00:47.703Z,5.40
2018-06-14T09:03:15.888Z,5.70
2018-06-14T09:05:44.070Z,7.67
2018-06-14T09:08:12.275Z,6.57
2018-06-14T09:10:40.449Z,5.50
2018-06-14T09:13:08.592Z,6.37
2018-06-14T09:15:36.762Z,6.33
2018-06-14T09:18:04.931Z,5.90
2018-06-14T09:20:33.126Z,6.10
2018-06-14T09:23:01.298Z,6.50
2018-06-14T09:25:29.479Z,5.60
2018-06-14T09:27:57.623Z,5.63
2018-06-14T09:30:25.835Z,5.83
2018-06-14T09:32:54.012Z,5.50
2018-06-14T09:35:22.205Z,5.63
2018-06-14T09:37:50.422Z,5.87
2018-06-14T09:40:18.602Z,5.37
2018-06-14T09:42:46.841Z,5.60
2018-06-14T09:45:14.955Z,5.43
2018-06-14T09:47:43.133Z,5.00
2018-06-14T09:50:11.299Z,5.43
2018-06-14T09:52:39.465Z,5.40
2018-06-14T09:55:07.646Z,5.07
2018-06-14T09:57:35.829Z,5.10
2018-06-14T10:00:04.058Z,5.87
2018-06-14T10:02:31.964Z,5.87
2018-06-14T10:05:00.184Z,5.37
2018-06-14T10:07:28.343Z,5.00
2018-06-14T10:09:56.546Z,5.13
2018-06-14T10:12:24.744Z,5.60
2018-06-14T10:14:52.685Z,5.10
2018-06-14T10:17:20.861Z,5.20
2018-06-14T10:19:49.025Z,4.70
2018-06-14T10:22:17.198Z,4.77
2018-06-14T10:24:45.366Z,4.80
2018-06-14T10:27:13.539Z,4.80
2018-06-14T10:29:41.701Z,4.80
2018-06-14T10:32:09.889Z,4.63
2018-06-14T10:34:38.079Z,5.00
2018-06-14T10:37:06.236Z,5.27
2018-06-14T10:39:34.391Z,4.60
2018-06-14T10:42:02.562Z,5.40
2018-06-14T10:44:30.720Z,4.90
2018-06-14T10:46:58.950Z,4.77
2018-06-14T10:49:27.124Z,5.50
2018-06-14T10:51:55.315Z,5.73
2018-06-14T10:54:23.473Z,5.23
2018-06-14T10:56:51.666Z,5.60
2018-06-14T10:59:19.839Z,5.20
2018-06-14T11:01:47.828Z,4.90
2018-06-14T11:04:15.989Z,5.10
2018-06-14T11:06:43.925Z,5.77
2018-06-14T11:09:12.971Z,5.37
2018-06-14T11:11:41.673Z,5.23
2018-06-14T11:14:09.905Z,4.47
2018-06-14T11:16:38.078Z,4.80
2018-06-14T11:19:06.020Z,5.33
2018-06-14T11:21:34.255Z,4.90
2018-06-14T11:24:02.571Z,4.83
2018-06-14T11:26:30.801Z,5.13
2018-06-14T11:28:58.975Z,4.33
2018-06-14T11:31:27.186Z,5.70
2018-06-14T11:33:55.397Z,4.10
2018-06-14T11:36:23.341Z,4.63
2018-06-14T11:38:51.540Z,4.50
2018-06-14T11:41:19.742Z,4.13
2018-06-14T11:43:47.938Z,4.70
2018-06-14T11:46:16.193Z,4.97
2018-06-14T11:48:44.402Z,4.77
2018-06-14T11:51:12.671Z,4.60
2018-06-14T11:53:40.872Z,4.77
2018-06-14T11:56:09.046Z,4.47
2018-06-14T11:58:37.233Z,4.50
2018-06-14T12:01:05.454Z,5.27
2018-06-14T12:03:33.625Z,4.97
2018-06-14T12:06:01.823Z,4.97
2018-06-14T12:08:30.019Z,4.93
2018-06-14T12:10:58.209Z,4.93
2018-06-14T12:13:26.178Z,4.50
2018-06-14T12:15:54.401Z,4.77
2018-06-14T12:18:22.589Z,5.20
2018-06-14T12:20:50.761Z,4.40
2018-06-14T12:23:18.946Z,4.50
2018-06-14T12:25:47.089Z,4.80
2018-06-14T12:28:15.243Z,5.30
2018-06-14T12:30:43.389Z,4.83
2018-06-14T12:33:11.583Z,4.40
2018-06-14T12:35:39.717Z,4.23
2018-06-14T12:38:07.888Z,5.40
2018-06-14T12:40:36.068Z,4.80
2018-06-14T12:43:04.356Z,4.70
2018-06-14T12:45:32.566Z,4.77
2018-06-14T12:48:00.802Z,4.77
2018-06-14T12:50:28.969Z,5.83
2018-06-14T12:52:57.168Z,6.07
2018-06-14T12:55:25.370Z,6.13
2018-06-14T12:57:53.571Z,5.83
2018-06-14T13:00:21.729Z,5.80
2018-06-14T13:02:49.872Z,4.87
2018-06-14T13:05:17.776Z,5.70
2018-06-14T13:07:45.961Z,5.70
2018-06-14T13:10:14.090Z,5.57
2018-06-14T13:12:42.254Z,5.80
2018-06-14T13:15:10.417Z,5.10
2018-06-14T13:17:38.658Z,4.97
2018-06-14T13:20:06.896Z,5.07
2018-06-14T13:22:35.101Z,4.83
2018-06-14T13:25:03.347Z,5.10
2018-06-14T13:27:31.542Z,5.67
2018-06-14T13:29:59.730Z,5.57
2018-06-14T13:32:27.918Z,5.70
2018-06-14T13:34:56.120Z,4.90
2018-06-14T13:37:24.324Z,5.33
2018-06-14T13:39:52.501Z,5.17
2018-06-14T13:42:20.694Z,4.97
2018-06-14T13:44:48.869Z,5.23
2018-06-14T13:47:17.071Z,5.70
2018-06-14T13:49:45.287Z,5.20
2018-06-14T13:52:14.177Z,5.30
2018-06-14T13:54:42.393Z,5.13
2018-06-14T13:57:10.562Z,5.47
2018-06-14T13:59:38.802Z,5.00
2018-06-14T14:02:07.008Z,5.57
2018-06-14T14:04:35.190Z,4.97
2018-06-14T14:07:06.274Z,5.20
2018-06-14T14:09:34.589Z,5.13
2018-06-14T14:12:02.745Z,5.40
2018-06-14T14:14:31.037Z,5.77
2018-06-14T14:16:59.590Z,5.00
2018-06-14T14:19:27.822Z,5.07
2018-06-14T14:21:56.053Z,5.20
2018-06-14T14:24:24.262Z,5.43
2018-06-14T14:26:52.432Z,4.70
2018-06-14T14:29:20.600Z,5.40
2018-06-14T14:31:48.800Z,4.70
2018-06-14T14:34:17.024Z,4.60
2018-06-14T14:36:45.205Z,4.50
2018-06-14T14:39:13.772Z,4.47
2018-06-14T14:41:42.192Z,4.70
2018-06-14T14:44:10.434Z,4.67
2018-06-14T14:46:38.605Z,4.70
2018-06-14T14:49:06.534Z,5.27
2018-06-14T14:51:34.699Z,5.97
2018-06-14T14:54:02.926Z,4.93
2018-06-14T14:56:31.143Z,5.07
2018-06-14T14:58:59.323Z,4.60
2018-06-14T15:01:27.498Z,5.13
2018-06-14T15:03:55.722Z,5.10
2018-06-14T15:06:23.658Z,4.90
2018-06-14T15:08:51.887Z,5.03
2018-06-14T15:11:20.078Z,5.30
2018-06-14T15:13:48.292Z,5.23
2018-06-14T15:16:16.488Z,5.50
2018-06-14T15:18:44.686Z,5.87
2018-06-14T15:21:12.874Z,5.40
2018-06-14T15:23:41.049Z,5.63
2018-06-14T15:26:09.245Z,5.40
2018-06-14T15:28:37.492Z,5.90
2018-06-14T15:31:05.648Z,5.10
2018-06-14T15:33:33.846Z,5.37
2018-06-14T15:36:02.083Z,5.50
2018-06-14T15:38:30.277Z,5.67
2018-06-14T15:40:58.456Z,5.40
2018-06-14T15:43:26.702Z,6.47
2018-06-14T15:45:54.901Z,6.00
2018-06-14T15:48:23.082Z,5.97
2018-06-14T15:50:51.271Z,5.10
2018-06-14T15:53:19.443Z,6.30
2018-06-14T15:56:01.953Z,6.00
2018-06-14T15:58:31.013Z,6.10
2018-06-14T16:00:58.959Z,6.13
2018-06-14T16:03:27.154Z,6.17
2018-06-14T16:05:55.098Z,5.93
2018-06-14T16:08:23.415Z,5.93
2018-06-14T16:10:51.715Z,6.03
2018-06-14T16:13:20.356Z,6.47
2018-06-14T16:15:48.590Z,5.73
2018-06-14T16:18:17.167Z,5.67
2018-06-14T16:20:46.274Z,5.80
2018-06-14T16:23:14.639Z,5.40
2018-06-14T16:25:42.945Z,5.50
2018-06-14T16:28:11.377Z,6.43
2018-06-14T16:30:39.679Z,6.40
2018-06-14T16:33:08.754Z,6.70
2018-06-14T16:35:37.044Z,6.43
2018-06-14T16:38:05.538Z,6.50
2018-06-14T16:40:33.873Z,6.53
2018-06-14T16:43:02.183Z,7.73
2018-06-14T16:45:30.453Z,7.10
2018-06-14T16:47:58.786Z,6.87
2018-06-14T16:50:27.099Z,6.63
2018-06-14T16:52:55.388Z,8.10
2018-06-14T16:55:23.695Z,7.20
2018-06-14T16:57:52.049Z,7.10
2018-06-14T17:00:20.385Z,7.77
2018-06-14T17:02:48.422Z,7.80
2018-06-14T17:05:16.673Z,6.67
2018-06-14T17:07:45.011Z,6.60
2018-06-14T17:10:12.986Z,6.60
2018-06-14T17:12:41.294Z,6.13
2018-06-14T17:15:09.569Z,6.40
2018-06-14T17:17:37.813Z,7.60
2018-06-14T17:20:05.998Z,6.63
2018-06-14T17:22:34.224Z,6.87
2018-06-14T17:25:02.431Z,6.63
2018-06-14T17:27:30.381Z,5.17
2018-06-14T17:29:58.578Z,6.07
2018-06-14T17:32:26.768Z,5.70
2018-06-14T17:34:54.937Z,5.67
2018-06-14T17:37:23.197Z,5.67
2018-06-14T17:39:51.110Z,5.20
2018-06-14T17:42:19.360Z,5.60
2018-06-14T17:44:47.534Z,5.20
2018-06-14T17:47:15.721Z,5.30
2018-06-14T17:49:43.898Z,6.17
2018-06-14T17:52:12.465Z,5.20
2018-06-14T17:54:40.655Z,4.80
2018-06-14T17:57:08.898Z,5.00
2018-06-14T17:59:37.089Z,4.67
2018-06-14T18:02:05.468Z,4.57
2018-06-14T18:07:08.350Z,4.30
2018-06-14T18:09:36.311Z,3.70
2018-06-14T18:12:04.514Z,3.90
2018-06-14T18:14:32.671Z,3.43
2018-06-14T18:17:00.616Z,3.27
2018-06-14T18:19:28.845Z,3.60
2018-06-14T18:21:57.087Z,3.80
2018-06-14T18:24:25.363Z,3.70
2018-06-14T18:26:53.360Z,3.70
2018-06-14T18:29:21.510Z,4.10
2018-06-14T18:31:49.449Z,3.83
2018-06-14T18:34:17.651Z,3.30
2018-06-14T18:36:45.564Z,3.47
2018-06-14T18:39:13.729Z,3.20
2018-06-14T18:41:41.929Z,3.60
2018-06-14T18:44:10.159Z,3.80
2018-06-14T18:46:38.311Z,3.50
2018-06-14T18:49:06.281Z,3.60
2018-06-14T18:51:34.798Z,3.50
2018-06-14T18:54:03.002Z,3.50
2018-06-14T18:56:31.202Z,3.60
2018-06-14T18:58:59.410Z,3.43
2018-06-14T19:01:27.635Z,3.53
2018-06-14T19:03:55.798Z,3.63
2018-06-14T19:06:24.320Z,3.40
2018-06-14T19:08:52.495Z,3.80
2018-06-14T19:11:20.461Z,6.23
2018-06-14T19:13:48.459Z,5.37
2018-06-14T19:16:16.649Z,8.90
2018-06-14T19:18:44.913Z,10.20
2018-06-14T19:21:13.149Z,3.80
2018-06-14T19:23:41.358Z,5.40
2018-06-14T19:26:09.595Z,3.50
2018-06-14T19:28:37.759Z,4.10
2018-06-14T19:31:05.938Z,4.57
2018-06-14T19:33:34.141Z,3.73
2018-06-14T19:36:02.321Z,3.87
2018-06-14T19:38:30.258Z,3.53
2018-06-14T19:40:58.458Z,3.60
2018-06-14T19:43:26.402Z,5.43
2018-06-14T19:45:54.602Z,3.97
2018-06-14T19:48:22.550Z,4.27
2018-06-14T19:50:50.726Z,3.77
2018-06-14T19:53:18.944Z,4.50
2018-06-14T19:55:47.122Z,4.57
2018-06-14T19:58:15.286Z,4.50
2018-06-14T20:00:43.435Z,3.77
2018-06-14T20:03:11.679Z,3.70
2018-06-14T20:05:39.874Z,3.50
2018-06-14T20:08:08.066Z,4.03
2018-06-14T20:10:36.237Z,4.50
2018-06-14T20:13:04.221Z,4.03
2018-06-14T20:15:32.387Z,4.27
2018-06-14T20:18:00.319Z,4.43
2018-06-14T20:20:28.514Z,3.93
2018-06-14T20:22:56.759Z,4.23
2018-06-14T20:25:24.933Z,4.50
2018-06-14T20:27:53.208Z,4.30
2018-06-14T20:30:21.382Z,4.93
2018-06-14T20:32:49.580Z,4.10
2018-06-14T20:35:17.788Z,4.30
2018-06-14T20:37:45.930Z,4.33
2018-06-14T20:40:14.098Z,4.77
2018-06-14T20:42:42.293Z,4.10
2018-06-14T20:45:10.221Z,4.43
2018-06-14T20:47:38.410Z,4.40
2018-06-14T20:50:06.591Z,4.30
2018-06-14T20:52:34.766Z,4.13
2018-06-14T20:55:02.966Z,4.20
2018-06-14T20:57:30.953Z,5.93
2018-06-14T20:59:59.109Z,5.57
2018-06-14T21:02:27.282Z,6.77
2018-06-14T21:04:55.560Z,5.20
2018-06-14T21:07:23.703Z,7.90
2018-06-14T21:09:51.918Z,9.77
2018-06-14T21:12:20.097Z,5.20
2018-06-14T21:14:48.307Z,4.90
2018-06-14T21:17:16.477Z,5.40
2018-06-14T21:19:44.656Z,5.77
2018-06-14T21:22:12.842Z,11.10
2018-06-14T21:24:41.045Z,6.03
2018-06-14T21:27:09.222Z,16.07
2018-06-14T21:29:37.153Z,6.20
2018-06-14T21:32:05.418Z,5.80
2018-06-14T21:34:33.604Z,6.00
2018-06-14T21:37:01.762Z,6.23
2018-06-14T21:39:29.982Z,6.37
2018-06-14T21:41:58.217Z,6.47
2018-06-14T21:44:26.413Z,6.50
2018-06-14T21:46:54.598Z,6.47
2018-06-14T21:49:22.873Z,6.53
2018-06-14T21:51:51.130Z,9.87
2018-06-14T21:54:19.342Z,6.63
2018-06-14T21:56:47.281Z,6.13
2018-06-14T21:59:15.482Z,6.83
2018-06-14T22:01:43.376Z,6.10
2018-06-14T22:04:11.579Z,6.07
2018-06-14T22:06:39.782Z,6.73
2018-06-14T22:09:08.174Z,6.90
2018-06-14T22:11:36.375Z,6.87
2018-06-14T22:14:05.838Z,6.87
2018-06-14T22:16:34.134Z,6.73
2018-06-14T22:19:02.278Z,7.20
2018-06-14T22:21:30.474Z,6.37
2018-06-14T22:23:58.721Z,6.80
2018-06-14T22:26:29.235Z,6.40
2018-06-14T22:28:57.589Z,6.53
2018-06-14T22:31:25.787Z,6.77
2018-06-14T22:34:07.131Z,6.17
2018-06-14T22:36:36.335Z,7.20
2018-06-14T22:39:06.173Z,6.67
2018-06-14T22:41:34.318Z,6.70
2018-06-14T22:44:03.015Z,6.43
2018-06-14T22:46:31.180Z,7.27
2018-06-14T22:48:59.354Z,6.83
2018-06-14T22:51:43.867Z,6.93
2018-06-14T22:54:12.037Z,6.70
2018-06-14T22:56:40.224Z,6.47
2018-06-14T22:59:08.899Z,7.43
2018-06-14T23:01:55.481Z,6.97
2018-06-14T23:04:26.061Z,7.87
2018-06-14T23:06:54.389Z,7.73
2018-06-14T23:10:36.753Z,7.00
2018-06-14T23:13:05.642Z,7.50
2018-06-14T23:15:33.916Z,8.17
2018-06-14T23:18:02.093Z,7.60
2018-06-14T23:20:31.914Z,7.97
2018-06-14T23:23:00.904Z,8.10
2018-06-14T23:25:30.214Z,8.50
2018-06-14T23:27:58.190Z,8.43
2018-06-14T23:30:26.445Z,8.30
2018-06-14T23:32:54.668Z,9.37
2018-06-14T23:35:22.861Z,8.63
2018-06-14T23:37:51.049Z,9.23
2018-06-14T23:40:19.244Z,9.93
2018-06-14T23:42:47.417Z,9.50
2018-06-14T23:45:15.586Z,9.93
2018-06-14T23:47:43.782Z,9.67
2018-06-14T23:50:11.729Z,9.83
2018-06-14T23:52:39.917Z,9.03
2018-06-14T23:55:07.873Z,8.27
2018-06-14T23:57:36.049Z,8.90
